createdAt,value
2023-04-04T00:00:24.652Z,74.77
2023-04-04T00:01:24.660Z,74.45
2023-04-04T00:02:24.704Z,74.56
2023-04-04T00:03:24.716Z,74.66
2023-04-04T00:04:24.617Z,74.14
2023-04-04T00:05:24.568Z,74.35
2023-04-04T00:06:24.570Z,74.80
2023-04-04T00:07:24.567Z,74.14
2023-04-04T00:08:24.546Z,73.83
2023-04-04T00:09:24.573Z,73.83
2023-04-04T00:10:24.522Z,74.35
2023-04-04T00:11:24.522Z,75.29
2023-04-04T00:12:27.660Z,74.77
2023-04-04T00:13:24.487Z,74.56
2023-04-04T00:14:24.465Z,74.35
2023-04-04T00:15:24.448Z,74.04
2023-04-04T00:16:24.504Z,74.04
2023-04-04T00:17:24.447Z,74.32
2023-04-04T00:18:24.412Z,73.79
2023-04-04T00:19:24.400Z,73.48
2023-04-04T00:20:24.387Z,72.96
2023-04-04T00:21:24.413Z,72.61
2023-04-04T00:22:24.353Z,72.19
2023-04-04T00:23:24.347Z,71.88
2023-04-04T00:24:24.363Z,71.98
2023-04-04T00:25:24.319Z,72.09
2023-04-04T00:26:24.324Z,72.82
2023-04-04T00:27:24.320Z,72.09
2023-04-04T00:28:24.305Z,71.53
2023-04-04T00:29:24.294Z,70.50
2023-04-04T00:30:24.260Z,70.60
2023-04-04T00:31:24.300Z,70.39
2023-04-04T00:32:24.303Z,69.56
2023-04-04T00:33:24.281Z,69.24
2023-04-04T00:34:24.207Z,69.76
2023-04-04T00:35:24.224Z,69.45
2023-04-04T00:36:24.204Z,69.13
2023-04-04T00:37:24.176Z,67.47
2023-04-04T00:38:24.173Z,67.47
2023-04-04T00:39:24.176Z,67.13
2023-04-04T00:40:24.143Z,66.82
2023-04-04T00:41:24.144Z,65.88
2023-04-04T00:42:24.113Z,66.19
2023-04-04T00:43:24.094Z,65.56
2023-04-04T00:44:24.087Z,65.04
2023-04-04T00:45:24.143Z,65.56
2023-04-04T00:46:24.088Z,65.56
2023-04-04T00:47:24.070Z,66.19
2023-04-04T00:48:24.047Z,65.67
2023-04-04T00:49:24.033Z,65.22
2023-04-04T00:50:24.012Z,65.84
2023-04-04T00:51:24.024Z,65.11
2023-04-04T00:52:24.042Z,63.76
2023-04-04T00:53:23.983Z,63.24
2023-04-04T00:54:23.980Z,63.87
2023-04-04T00:55:23.973Z,63.65
2023-04-04T00:56:23.961Z,64.18
2023-04-04T00:57:23.913Z,63.97
2023-04-04T00:58:23.915Z,63.24
2023-04-04T00:59:24.018Z,63.87
2023-04-04T01:00:23.912Z,63.45
2023-04-04T01:01:23.946Z,63.34
2023-04-04T01:02:23.867Z,62.93
2023-04-04T01:03:23.849Z,62.72
2023-04-04T01:04:23.893Z,62.82
2023-04-04T01:05:23.829Z,62.82
2023-04-04T01:06:23.824Z,62.72
2023-04-04T01:07:23.825Z,62.72
2023-04-04T01:08:23.779Z,63.45
2023-04-04T01:09:23.802Z,63.76
2023-04-04T01:10:23.762Z,63.76
2023-04-04T01:11:23.787Z,64.07
2023-04-04T01:12:23.747Z,63.13
2023-04-04T01:13:23.727Z,62.72
2023-04-04T01:14:23.714Z,63.79
2023-04-04T01:15:23.693Z,63.27
2023-04-04T01:16:23.727Z,62.85
2023-04-04T01:17:23.673Z,62.54
2023-04-04T01:18:23.646Z,62.23
2023-04-04T01:19:23.642Z,62.02
2023-04-04T01:20:23.624Z,61.29
2023-04-04T01:21:23.628Z,60.87
2023-04-04T01:22:23.608Z,60.90
2023-04-04T01:23:23.607Z,61.21
2023-04-04T01:24:23.583Z,62.05
2023-04-04T01:25:23.583Z,62.36
2023-04-04T01:26:23.576Z,62.57
2023-04-04T01:27:23.542Z,62.57
2023-04-04T01:28:23.551Z,62.26
2023-04-04T01:29:23.550Z,63.51
2023-04-04T01:30:23.498Z,63.30
2023-04-04T01:31:23.581Z,63.75
2023-04-04T01:32:23.491Z,63.75
2023-04-04T01:33:23.496Z,62.60
2023-04-04T01:34:23.495Z,63.43
2023-04-04T01:35:23.453Z,63.85
2023-04-04T01:36:23.486Z,64.89
2023-04-04T01:37:23.421Z,64.61
2023-04-04T01:38:23.407Z,63.15
2023-04-04T01:39:23.381Z,63.78
2023-04-04T01:40:23.348Z,63.98
2023-04-04T01:41:23.353Z,62.45
2023-04-04T01:42:23.361Z,62.34
2023-04-04T01:43:23.377Z,62.24
2023-04-04T01:44:23.347Z,62.55
2023-04-04T01:45:23.312Z,64.53
2023-04-04T01:46:23.363Z,65.37
2023-04-04T01:47:23.317Z,65.09
2023-04-04T01:48:23.282Z,65.61
2023-04-04T01:49:23.275Z,65.71
2023-04-04T01:50:23.285Z,66.75
2023-04-04T01:51:23.247Z,69.47
2023-04-04T01:52:23.266Z,69.26
2023-04-04T01:53:23.233Z,69.37
2023-04-04T01:54:23.210Z,68.63
2023-04-04T01:55:23.191Z,67.41
2023-04-04T01:56:23.173Z,67.73
2023-04-04T01:57:23.204Z,68.67
2023-04-04T01:58:23.161Z,69.09
2023-04-04T01:59:23.183Z,69.29
2023-04-04T02:00:23.135Z,69.33
2023-04-04T02:01:23.208Z,68.38
2023-04-04T02:02:23.163Z,68.49
2023-04-04T02:03:23.090Z,69.12
2023-04-04T02:04:23.152Z,69.22
2023-04-04T02:05:23.086Z,68.94
2023-04-04T02:06:23.049Z,68.94
2023-04-04T02:07:23.062Z,68.84
2023-04-04T02:08:23.024Z,69.15
2023-04-04T02:09:23.020Z,69.15
2023-04-04T02:10:23.026Z,68.41
2023-04-04T02:11:23.066Z,69.18
2023-04-04T02:12:23.007Z,70.12
2023-04-04T02:13:22.967Z,70.75
2023-04-04T02:14:22.971Z,72.01
2023-04-04T02:15:22.960Z,71.90
2023-04-04T02:16:23.044Z,72.32
2023-04-04T02:17:22.953Z,73.05
2023-04-04T02:18:22.906Z,73.26
2023-04-04T02:19:22.910Z,72.88
2023-04-04T02:20:22.908Z,72.56
2023-04-04T02:21:22.899Z,73.30
2023-04-04T02:22:22.903Z,72.46
2023-04-04T02:23:22.827Z,70.99
2023-04-04T02:24:22.844Z,70.61
2023-04-04T02:25:22.837Z,69.98
2023-04-04T02:26:22.808Z,70.18
2023-04-04T02:27:22.800Z,71.23
2023-04-04T02:28:22.793Z,71.55
2023-04-04T02:29:22.769Z,71.26
2023-04-04T02:30:22.804Z,72.11
2023-04-04T02:31:22.785Z,72.21
2023-04-04T02:32:22.777Z,72.11
2023-04-04T02:33:22.725Z,72.63
2023-04-04T02:34:22.735Z,73.26
2023-04-04T02:35:22.728Z,74.02
2023-04-04T02:36:22.745Z,74.97
2023-04-04T02:37:22.733Z,74.87
2023-04-04T02:38:22.673Z,74.97
2023-04-04T02:39:22.647Z,75.60
2023-04-04T02:40:22.643Z,75.67
2023-04-04T02:41:22.600Z,76.02
2023-04-04T02:42:22.610Z,76.12
2023-04-04T02:43:22.595Z,76.54
2023-04-04T02:44:22.605Z,76.96
2023-04-04T02:45:22.608Z,76.96
2023-04-04T02:46:22.576Z,75.78
2023-04-04T02:47:22.549Z,75.18
2023-04-04T02:48:22.803Z,76.12
2023-04-04T02:49:22.508Z,76.12
2023-04-04T02:50:22.539Z,76.12
2023-04-04T02:51:22.527Z,76.54
2023-04-04T02:52:22.476Z,76.43
2023-04-04T02:53:22.536Z,76.57
2023-04-04T02:54:22.495Z,77.31
2023-04-04T02:55:22.431Z,77.52
2023-04-04T02:56:22.471Z,77.84
2023-04-04T02:57:22.437Z,78.36
2023-04-04T02:58:22.455Z,78.25
2023-04-04T02:59:22.458Z,77.84
2023-04-04T03:00:22.400Z,78.05
2023-04-04T03:01:22.465Z,77.94
2023-04-04T03:02:22.456Z,78.25
2023-04-04T03:03:22.741Z,77.00
2023-04-04T03:04:22.349Z,76.47
2023-04-04T03:05:22.326Z,76.72
2023-04-04T03:06:22.331Z,76.82
2023-04-04T03:07:22.283Z,77.14
2023-04-04T03:08:22.297Z,77.66
2023-04-04T03:09:22.287Z,77.34
2023-04-04T03:10:22.272Z,77.24
2023-04-04T03:11:22.281Z,77.03
2023-04-04T03:12:22.277Z,76.93
2023-04-04T03:13:22.284Z,77.56
2023-04-04T03:14:22.226Z,78.61
2023-04-04T03:15:22.210Z,79.44
2023-04-04T03:16:22.255Z,78.92
2023-04-04T03:17:22.205Z,78.50
2023-04-04T03:18:22.162Z,79.86
2023-04-04T03:19:22.164Z,79.34
2023-04-04T03:20:22.168Z,78.75
2023-04-04T03:21:22.143Z,78.75
2023-04-04T03:22:22.186Z,79.17
2023-04-04T03:23:22.096Z,79.69
2023-04-04T03:24:22.255Z,79.27
2023-04-04T03:25:22.073Z,79.48
2023-04-04T03:26:22.047Z,79.58
2023-04-04T03:27:22.123Z,79.80
2023-04-04T03:28:22.060Z,79.80
2023-04-04T03:29:22.030Z,80.11
2023-04-04T03:30:22.014Z,80.11
2023-04-04T03:31:22.108Z,80.74
2023-04-04T03:32:22.021Z,81.79
2023-04-04T03:33:21.999Z,81.48
2023-04-04T03:34:21.960Z,81.16
2023-04-04T03:35:21.993Z,81.48
2023-04-04T03:36:21.942Z,81.27
2023-04-04T03:37:21.931Z,81.37
2023-04-04T03:38:21.934Z,81.69
2023-04-04T03:39:21.902Z,81.58
2023-04-04T03:40:21.906Z,81.05
2023-04-04T03:41:21.874Z,81.27
2023-04-04T03:42:21.874Z,80.88
2023-04-04T03:43:21.831Z,80.57
2023-04-04T03:44:21.835Z,80.68
2023-04-04T03:45:21.833Z,81.30
2023-04-04T03:46:21.839Z,81.51
2023-04-04T03:47:21.867Z,81.73
2023-04-04T03:48:21.796Z,81.83
2023-04-04T03:49:21.775Z,81.55
2023-04-04T04:03:00.879Z,84.28
2023-04-04T04:04:00.763Z,84.39
2023-04-04T04:05:00.738Z,84.18
2023-04-04T04:06:00.719Z,83.54
2023-04-04T04:07:00.714Z,83.54
2023-04-04T04:08:00.701Z,83.76
2023-04-04T04:09:00.691Z,83.76
2023-04-04T04:10:00.690Z,83.44
2023-04-04T04:11:00.664Z,82.92
2023-04-04T04:12:00.682Z,83.13
2023-04-04T04:13:00.644Z,82.71
2023-04-04T04:14:00.634Z,82.53
2023-04-04T04:15:00.628Z,82.53
2023-04-04T04:16:00.623Z,82.53
2023-04-04T04:17:07.711Z,82.75
2023-04-04T04:18:00.618Z,82.64
2023-04-04T04:19:00.551Z,82.64
2023-04-04T04:20:00.577Z,82.64
2023-04-04T04:21:00.529Z,82.95
2023-04-04T04:22:00.536Z,83.27
2023-04-04T04:23:00.572Z,83.90
2023-04-04T04:24:00.530Z,84.01
2023-04-04T04:25:00.519Z,84.01
2023-04-04T04:26:00.474Z,83.90
2023-04-04T04:27:00.475Z,84.01
2023-04-04T04:28:00.449Z,83.80
2023-04-04T04:29:00.482Z,83.86
2023-04-04T04:30:00.515Z,83.90
2023-04-04T04:31:00.424Z,83.86
2023-04-04T04:32:00.437Z,83.76
2023-04-04T04:33:00.387Z,83.37
2023-04-04T04:34:00.387Z,83.44
2023-04-04T04:35:00.413Z,83.65
2023-04-04T04:36:01.766Z,83.97
2023-04-04T04:37:00.348Z,84.08
2023-04-04T04:38:00.350Z,84.18
2023-04-04T04:39:00.332Z,84.28
2023-04-04T04:40:00.331Z,84.28
2023-04-04T04:41:00.297Z,84.08
2023-04-04T04:42:00.305Z,83.97
2023-04-04T04:43:00.271Z,83.65
2023-04-04T04:44:00.260Z,83.65
2023-04-04T04:45:00.267Z,83.65
2023-04-04T04:46:00.244Z,83.44
2023-04-04T04:47:00.268Z,83.65
2023-04-04T04:48:00.266Z,83.65
2023-04-04T04:49:00.273Z,83.54
2023-04-04T04:50:00.198Z,83.23
2023-04-04T04:51:00.178Z,83.34
2023-04-04T04:52:00.182Z,83.34
2023-04-04T04:53:00.161Z,83.44
2023-04-04T04:54:00.186Z,83.76
2023-04-04T04:55:00.134Z,84.08
2023-04-04T04:56:00.131Z,83.97
2023-04-04T04:57:00.137Z,83.97
2023-04-04T04:58:00.142Z,84.08
2023-04-04T04:59:00.177Z,84.08
2023-04-04T05:00:00.058Z,84.18
2023-04-04T05:01:00.110Z,84.28
2023-04-04T05:02:00.103Z,84.28
2023-04-04T05:03:00.059Z,84.28
2023-04-04T05:04:00.021Z,84.39
2023-04-04T05:05:00.006Z,84.18
2023-04-04T05:06:00.002Z,84.18
2023-04-04T05:06:59.975Z,84.60
2023-04-04T05:07:59.977Z,84.81
2023-04-04T05:08:59.970Z,84.49
2023-04-04T05:09:59.929Z,84.18
2023-04-04T05:10:59.976Z,84.39
2023-04-04T05:11:59.923Z,84.81
2023-04-04T05:12:59.924Z,84.91
2023-04-04T05:13:59.907Z,84.70
2023-04-04T05:14:59.873Z,84.70
2023-04-04T05:15:59.861Z,84.81
2023-04-04T05:16:59.917Z,84.91
2023-04-04T05:17:59.887Z,85.02
2023-04-04T05:18:59.844Z,84.98
2023-04-04T05:19:59.856Z,85.08
2023-04-04T05:20:59.861Z,84.98
2023-04-04T05:21:59.785Z,84.98
2023-04-04T05:22:59.769Z,84.67
2023-04-04T05:23:59.756Z,84.14
2023-04-04T05:24:59.774Z,83.83
2023-04-04T05:25:59.776Z,83.93
2023-04-04T05:26:59.737Z,83.93
2023-04-04T05:27:59.738Z,83.72
2023-04-04T05:28:59.715Z,83.51
2023-04-04T05:29:59.698Z,83.61
2023-04-04T05:30:59.716Z,83.47
2023-04-04T05:31:59.669Z,83.58
2023-04-04T05:32:59.697Z,83.89
2023-04-04T05:33:59.648Z,84.20
2023-04-04T05:34:59.708Z,84.10
2023-04-04T05:35:59.752Z,84.10
2023-04-04T05:36:59.674Z,83.96
2023-04-04T05:37:59.583Z,83.86
2023-04-04T05:38:59.584Z,83.75
2023-04-04T05:39:59.551Z,83.86
2023-04-04T05:40:59.599Z,83.64
2023-04-04T05:41:59.554Z,83.64
2023-04-04T05:42:59.528Z,83.44
2023-04-04T05:43:59.522Z,83.33
2023-04-04T05:44:59.534Z,82.98
2023-04-04T05:45:59.589Z,82.98
2023-04-04T05:46:59.482Z,82.66
2023-04-04T05:47:59.496Z,82.45
2023-04-04T05:48:59.497Z,82.35
2023-04-04T05:49:59.460Z,81.93
2023-04-04T05:50:59.451Z,81.72
2023-04-04T05:51:59.449Z,81.68
2023-04-04T05:52:59.398Z,81.68
2023-04-04T05:53:59.398Z,81.47
2023-04-04T05:54:59.377Z,81.16
2023-04-04T05:55:59.393Z,80.63
2023-04-04T05:56:59.404Z,80.21
2023-04-04T05:57:59.337Z,80.11
2023-04-04T05:58:59.369Z,80.21
2023-04-04T05:59:59.323Z,80.00
2023-04-04T06:00:59.315Z,79.79
2023-04-04T06:01:59.297Z,79.38
2023-04-04T06:02:59.425Z,79.34
2023-04-04T06:03:59.269Z,79.34
2023-04-04T06:04:59.268Z,78.92
2023-04-04T06:05:59.292Z,78.60
2023-04-04T06:06:59.267Z,78.71
2023-04-04T06:07:59.210Z,78.25
2023-04-04T06:08:59.227Z,78.36
2023-04-04T06:09:59.190Z,78.25
2023-04-04T06:10:59.230Z,77.31
2023-04-04T06:11:59.171Z,77.31
2023-04-04T06:12:59.164Z,77.28
2023-04-04T06:13:59.172Z,77.38
2023-04-04T06:14:59.129Z,77.38
2023-04-04T06:15:59.181Z,77.38
2023-04-04T06:16:59.148Z,77.07
2023-04-04T06:17:59.138Z,75.92
2023-04-04T06:18:59.085Z,76.40
2023-04-04T06:19:59.078Z,76.09
2023-04-04T06:20:59.069Z,75.35
2023-04-04T06:21:59.062Z,74.31
2023-04-04T06:22:59.091Z,74.80
2023-04-04T06:23:59.008Z,74.90
2023-04-04T06:24:59.031Z,74.69
2023-04-04T06:25:59.024Z,74.90
2023-04-04T06:26:59.044Z,74.59
2023-04-04T06:27:58.963Z,74.24
2023-04-04T06:28:58.966Z,74.14
2023-04-04T06:29:58.950Z,74.04
2023-04-04T06:30:58.952Z,73.82
2023-04-04T06:31:58.952Z,73.37
2023-04-04T06:32:58.972Z,73.16
2023-04-04T06:33:58.931Z,73.16
2023-04-04T06:34:58.880Z,73.06
2023-04-04T06:35:58.893Z,73.79
2023-04-04T06:36:58.890Z,73.47
2023-04-04T06:37:58.885Z,72.92
2023-04-04T06:38:58.854Z,72.40
2023-04-04T06:39:58.818Z,72.19
2023-04-04T06:40:58.833Z,72.30
2023-04-04T06:41:58.830Z,72.61
2023-04-04T06:42:58.825Z,72.36
2023-04-04T06:43:58.826Z,71.42
2023-04-04T06:44:58.820Z,70.90
2023-04-04T06:45:58.791Z,70.59
2023-04-04T06:46:58.854Z,69.86
2023-04-04T06:47:58.835Z,70.28
2023-04-04T06:48:58.748Z,70.07
2023-04-04T06:49:58.706Z,69.62
2023-04-04T06:50:58.701Z,69.51
2023-04-04T06:51:58.698Z,69.10
2023-04-04T06:52:58.734Z,68.99
2023-04-04T06:53:58.673Z,68.16
2023-04-04T06:54:58.687Z,68.16
2023-04-04T06:55:58.625Z,68.13
2023-04-04T06:56:58.644Z,68.02
2023-04-04T06:57:58.635Z,68.23
2023-04-04T06:58:58.640Z,68.33
2023-04-04T06:59:58.578Z,68.33
2023-04-04T07:00:58.688Z,67.81
2023-04-04T07:01:58.587Z,66.95
2023-04-04T07:02:58.591Z,66.63
2023-04-04T07:03:58.563Z,66.85
2023-04-04T07:04:58.510Z,67.68
2023-04-04T07:05:58.509Z,67.05
2023-04-04T07:06:58.510Z,66.19
2023-04-04T07:07:58.496Z,66.71
2023-04-04T07:08:58.491Z,66.92
2023-04-04T07:09:58.452Z,66.50
2023-04-04T07:10:58.444Z,66.82
2023-04-04T07:11:58.454Z,67.13
2023-04-04T07:12:58.452Z,66.92
2023-04-04T07:13:58.410Z,67.13
2023-04-04T07:14:58.428Z,67.30
2023-04-04T07:15:58.389Z,66.99
2023-04-04T07:16:58.435Z,67.41
2023-04-04T07:17:58.399Z,67.41
2023-04-04T07:18:58.357Z,66.96
2023-04-04T07:19:58.387Z,66.96
2023-04-04T07:20:58.320Z,66.44
2023-04-04T07:21:58.378Z,65.92
2023-04-04T07:22:58.316Z,66.54
2023-04-04T07:23:58.287Z,66.02
2023-04-04T07:24:58.286Z,65.78
2023-04-04T07:25:58.261Z,65.37
2023-04-04T07:26:58.291Z,65.47
2023-04-04T07:28:06.029Z,64.64
2023-04-04T07:28:59.232Z,64.64
2023-04-04T07:29:58.230Z,64.85
2023-04-04T07:30:58.225Z,64.95
2023-04-04T07:31:58.204Z,65.34
2023-04-04T07:32:58.314Z,65.55
2023-04-04T07:33:58.178Z,65.44
2023-04-04T07:34:58.160Z,65.03
2023-04-04T07:35:58.140Z,64.82
2023-04-04T07:36:58.146Z,64.82
2023-04-04T07:37:58.125Z,63.96
2023-04-04T07:38:58.163Z,63.54
2023-04-04T07:39:58.103Z,63.96
2023-04-04T07:40:58.080Z,63.96
2023-04-04T07:41:58.055Z,63.12
2023-04-04T07:42:58.054Z,63.12
2023-04-04T07:43:58.024Z,63.23
2023-04-04T07:44:58.040Z,63.33
2023-04-04T07:45:58.074Z,63.51
2023-04-04T07:47:08.589Z,62.88
2023-04-04T07:47:59.046Z,62.78
2023-04-04T07:48:57.967Z,62.37
2023-04-04T07:49:57.957Z,62.47
2023-04-04T07:50:57.966Z,62.68
2023-04-04T07:52:04.954Z,61.95
2023-04-04T07:52:57.912Z,62.26
2023-04-04T07:53:57.895Z,62.24
2023-04-04T07:54:57.880Z,62.45
2023-04-04T07:55:57.857Z,60.88
2023-04-04T07:56:57.906Z,61.71
2023-04-04T07:57:57.903Z,61.92
2023-04-04T07:58:57.846Z,60.68
2023-04-04T07:59:57.858Z,60.75
2023-04-04T08:00:57.834Z,62.10
2023-04-04T08:01:57.817Z,62.10
2023-04-04T08:02:57.878Z,62.41
2023-04-04T08:03:57.914Z,62.00
2023-04-04T08:04:57.755Z,62.07
2023-04-04T08:05:57.788Z,61.66
2023-04-04T08:06:57.788Z,60.72
2023-04-04T08:07:57.743Z,59.79
2023-04-04T08:08:57.768Z,60.00
2023-04-04T08:09:57.696Z,59.58
2023-04-04T08:10:57.688Z,60.00
2023-04-04T08:11:57.707Z,59.79
2023-04-04T08:12:57.688Z,58.54
2023-04-04T08:13:57.668Z,58.34
2023-04-04T08:14:57.673Z,58.03
2023-04-04T08:15:57.675Z,58.03
2023-04-04T08:16:57.650Z,58.05
2023-04-04T08:17:57.693Z,58.26
2023-04-04T08:18:59.447Z,57.95
2023-04-04T08:19:57.579Z,58.36
2023-04-04T08:20:57.575Z,58.36
2023-04-04T08:21:57.569Z,58.34
2023-04-04T08:22:57.585Z,58.44
2023-04-04T08:23:57.578Z,57.71
2023-04-04T08:24:57.554Z,58.03
2023-04-04T08:25:57.500Z,58.44
2023-04-04T08:27:04.973Z,58.34
2023-04-04T08:27:58.495Z,58.42
2023-04-04T08:28:57.497Z,58.00
2023-04-04T08:29:57.447Z,57.48
2023-04-04T08:30:57.447Z,57.69
2023-04-04T08:31:57.445Z,57.38
2023-04-04T08:32:57.458Z,56.41
2023-04-04T08:33:57.430Z,56.10
2023-04-04T08:34:57.414Z,56.41
2023-04-04T08:35:57.413Z,56.41
2023-04-04T08:36:57.362Z,55.27
2023-04-04T08:37:57.353Z,56.52
2023-04-04T08:38:57.357Z,56.39
2023-04-04T08:39:57.317Z,56.08
2023-04-04T08:40:57.329Z,56.39
2023-04-04T08:41:57.316Z,56.81
2023-04-04T08:42:57.299Z,57.32
2023-04-04T08:43:57.298Z,57.01
2023-04-04T08:44:57.279Z,56.91
2023-04-04T08:45:57.267Z,56.91
2023-04-04T08:46:57.323Z,57.22
2023-04-04T08:47:57.296Z,57.01
2023-04-04T08:48:57.581Z,56.70
2023-04-04T08:49:57.197Z,56.39
2023-04-04T08:50:57.210Z,56.81
2023-04-04T08:51:57.172Z,57.20
2023-04-04T08:52:57.158Z,57.40
2023-04-04T08:53:57.196Z,57.71
2023-04-04T08:54:57.143Z,57.20
2023-04-04T08:55:57.121Z,56.16
2023-04-04T08:56:57.139Z,55.74
2023-04-04T08:57:57.111Z,56.26
2023-04-04T08:58:57.130Z,56.88
2023-04-04T08:59:57.151Z,57.20
2023-04-04T09:00:57.059Z,57.20
2023-04-04T09:01:57.080Z,57.71
2023-04-04T09:02:57.236Z,58.12
2023-04-04T09:03:57.044Z,55.54
2023-04-04T09:05:05.619Z,55.54
2023-04-04T09:05:58.005Z,56.57
2023-04-04T09:06:57.092Z,58.00
2023-04-04T09:07:57.030Z,58.41
2023-04-04T09:08:56.974Z,57.58
2023-04-04T09:09:56.948Z,56.96
2023-04-04T09:10:56.989Z,55.79
2023-04-04T09:11:56.926Z,56.62
2023-04-04T09:13:05.180Z,55.69
2023-04-04T09:13:57.945Z,55.79
2023-04-04T09:14:56.906Z,55.38
2023-04-04T09:15:56.872Z,55.90
2023-04-04T09:16:56.899Z,54.97
2023-04-04T09:17:56.898Z,54.58
2023-04-04T09:18:56.844Z,54.47
2023-04-04T09:19:56.847Z,55.72
2023-04-04T09:20:56.818Z,55.51
2023-04-04T09:21:56.830Z,54.16
2023-04-04T09:22:56.802Z,54.58
2023-04-04T09:23:56.776Z,55.20
2023-04-04T09:24:56.776Z,56.13
2023-04-04T09:26:04.091Z,55.51
2023-04-04T09:26:57.746Z,55.20
2023-04-04T09:27:56.728Z,56.34
2023-04-04T09:28:56.928Z,55.10
2023-04-04T09:29:56.719Z,54.89
2023-04-04T09:30:56.693Z,55.30
2023-04-04T09:31:56.695Z,56.31
2023-04-04T09:32:56.708Z,56.00
2023-04-04T09:33:56.657Z,54.76
2023-04-04T09:34:56.646Z,54.66
2023-04-04T09:35:56.664Z,53.70
2023-04-04T09:36:56.611Z,54.74
2023-04-04T09:37:56.599Z,52.56
2023-04-04T09:38:56.583Z,52.46
2023-04-04T09:39:56.604Z,53.08
2023-04-04T09:40:56.571Z,54.74
2023-04-04T09:41:56.550Z,54.50
2023-04-04T09:42:56.521Z,53.88
2023-04-04T09:43:56.539Z,52.95
2023-04-04T09:44:56.518Z,52.51
2023-04-04T09:45:56.516Z,52.62
2023-04-04T09:46:56.481Z,51.58
2023-04-04T10:03:04.798Z,49.37
2023-04-04T10:04:04.715Z,49.99
2023-04-04T10:05:06.619Z,50.21
2023-04-04T10:06:06.933Z,49.80
2023-04-04T10:07:04.672Z,49.57
2023-04-04T10:08:04.683Z,49.16
2023-04-04T10:09:04.618Z,49.65
2023-04-04T10:10:04.693Z,50.27
2023-04-04T10:12:04.613Z,51.78
2023-04-04T10:13:04.600Z,48.97
2023-04-04T10:14:04.611Z,49.05
2023-04-04T10:15:04.595Z,48.61
2023-04-04T10:16:07.354Z,50.36
2023-04-04T10:17:04.539Z,50.44
2023-04-04T10:18:04.542Z,48.90
2023-04-04T10:19:04.568Z,47.77
2023-04-04T10:20:04.536Z,47.58
2023-04-04T10:21:14.622Z,47.87
2023-04-04T10:22:05.484Z,48.41
2023-04-04T10:23:04.470Z,48.61
2023-04-04T10:24:04.480Z,48.51
2023-04-04T10:25:04.444Z,46.26
2023-04-04T10:26:04.432Z,47.71
2023-04-04T10:27:04.403Z,46.59
2023-04-04T10:28:04.396Z,48.35
2023-04-04T10:29:04.422Z,49.07
2023-04-04T10:30:04.371Z,48.78
2023-04-04T10:31:06.622Z,48.37
2023-04-04T10:32:04.382Z,47.34
2023-04-04T10:33:04.444Z,47.96
2023-04-04T10:34:04.352Z,47.21
2023-04-04T10:35:04.309Z,50.36
2023-04-04T10:36:04.326Z,50.75
2023-04-04T10:37:04.282Z,49.80
2023-04-04T10:38:04.286Z,49.47
2023-04-04T10:39:04.263Z,48.11
2023-04-04T10:40:04.253Z,48.83
2023-04-04T10:41:04.232Z,49.43
2023-04-04T10:42:04.234Z,47.47
2023-04-04T10:43:04.203Z,47.04
2023-04-04T10:44:04.209Z,44.78
2023-04-04T10:45:19.307Z,43.75
2023-04-04T10:46:05.257Z,46.73
2023-04-04T10:47:04.158Z,44.70
2023-04-04T10:48:04.228Z,44.10
2023-04-04T10:49:04.137Z,44.84
2023-04-04T10:50:04.100Z,47.23
2023-04-04T10:51:04.110Z,46.63
2023-04-04T10:52:04.119Z,45.42
2023-04-04T10:53:04.062Z,47.19
2023-04-04T10:54:04.081Z,45.77
2023-04-04T10:55:04.051Z,47.34
2023-04-04T10:56:04.026Z,47.65
2023-04-04T10:57:04.062Z,49.32
2023-04-04T10:58:04.004Z,48.08
2023-04-04T10:59:03.994Z,49.73
2023-04-04T11:00:03.961Z,48.78
2023-04-04T11:01:03.999Z,50.10
2023-04-04T11:02:03.981Z,49.56
2023-04-04T11:03:03.935Z,49.54
2023-04-04T11:04:11.440Z,48.98
2023-04-04T11:05:03.892Z,50.29
2023-04-04T11:06:03.903Z,47.91
2023-04-04T11:07:03.885Z,47.04
2023-04-04T11:08:10.926Z,47.02
2023-04-04T11:09:03.867Z,43.12
2023-04-04T11:10:03.829Z,43.63
2023-04-04T11:11:09.735Z,41.58
2023-04-04T11:12:04.811Z,43.32
2023-04-04T11:13:12.359Z,44.02
2023-04-04T11:14:04.845Z,45.03
2023-04-04T11:15:03.780Z,43.38
2023-04-04T11:16:03.933Z,42.15
2023-04-04T11:17:03.756Z,43.79
2023-04-04T11:18:08.108Z,42.56
2023-04-04T11:19:04.749Z,43.28
2023-04-04T11:20:03.738Z,43.49
2023-04-04T11:21:03.785Z,41.37
2023-04-04T11:22:03.710Z,44.24
2023-04-04T11:23:04.383Z,43.65
2023-04-04T11:24:03.675Z,43.65
2023-04-04T11:25:03.661Z,45.52
2023-04-04T11:26:03.721Z,45.83
2023-04-04T11:27:03.634Z,44.82
2023-04-04T11:28:03.671Z,45.95
2023-04-04T11:29:03.624Z,46.57
2023-04-04T11:30:04.481Z,44.20
2023-04-04T11:31:03.598Z,44.92
2023-04-04T11:32:03.579Z,44.10
2023-04-04T11:33:07.215Z,42.86
2023-04-04T11:34:03.603Z,46.44
2023-04-04T11:35:03.543Z,45.09
2023-04-04T11:36:04.588Z,46.38
2023-04-04T11:37:03.524Z,47.18
2023-04-04T11:38:03.527Z,46.62
2023-04-04T11:39:03.482Z,45.17
2023-04-04T11:40:03.512Z,44.12
2023-04-04T11:41:03.441Z,41.93
2023-04-04T11:42:03.552Z,44.67
2023-04-04T11:43:03.456Z,42.32
2023-04-04T11:44:03.433Z,43.94
2023-04-04T11:45:03.433Z,43.43
2023-04-04T11:46:03.413Z,42.38
2023-04-04T11:47:03.392Z,41.77
2023-04-04T11:48:03.396Z,42.49
2023-04-04T11:49:03.354Z,41.26
2023-04-04T11:50:03.362Z,39.01
2023-04-04T11:51:03.318Z,40.85
2023-04-04T11:52:03.342Z,40.95
2023-04-04T11:53:03.295Z,41.35
2023-04-04T11:54:03.302Z,39.61
2023-04-04T11:55:03.304Z,39.71
2023-04-04T11:56:03.300Z,40.81
2023-04-04T11:57:03.280Z,40.39
2023-04-04T11:58:03.244Z,40.81
2023-04-04T11:59:10.905Z,39.92
2023-04-04T12:00:04.236Z,37.91
2023-04-04T12:01:03.225Z,38.83
2023-04-04T12:02:03.174Z,38.03
2023-04-04T12:03:03.264Z,40.60
2023-04-04T12:04:03.191Z,41.75
2023-04-04T12:05:03.291Z,41.15
2023-04-04T12:06:03.207Z,41.24
2023-04-04T12:07:03.160Z,42.14
2023-04-04T12:08:03.112Z,39.87
2023-04-04T12:09:03.096Z,41.38
2023-04-04T12:10:03.084Z,37.89
2023-04-04T12:11:03.060Z,39.51
2023-04-04T12:12:03.069Z,38.78
2023-04-04T12:13:03.052Z,40.00
2023-04-04T12:14:03.064Z,38.71
2023-04-04T12:15:14.465Z,40.75
2023-04-04T12:16:04.015Z,39.03
2023-04-04T12:17:02.989Z,38.54
2023-04-04T12:18:03.017Z,40.70
2023-04-04T12:19:02.994Z,40.52
2023-04-04T12:20:02.968Z,40.52
2023-04-04T12:21:02.933Z,41.46
2023-04-04T12:22:04.538Z,40.35
2023-04-04T12:23:02.932Z,40.88
2023-04-04T12:24:02.925Z,41.93
2023-04-04T12:25:02.879Z,40.31
2023-04-04T12:26:02.896Z,41.44
2023-04-04T12:27:02.854Z,40.94
2023-04-04T12:28:02.855Z,42.07
2023-04-04T12:29:02.854Z,42.89
2023-04-04T12:30:02.822Z,44.43
2023-04-04T12:31:02.858Z,45.64
2023-04-04T12:32:02.795Z,43.59
2023-04-04T12:33:02.845Z,43.49
2023-04-04T12:34:02.761Z,41.76
2023-04-04T12:35:02.765Z,42.38
2023-04-04T12:36:02.822Z,42.97
2023-04-04T12:37:02.781Z,42.97
2023-04-04T12:38:02.755Z,45.10
2023-04-04T12:39:02.706Z,43.37
2023-04-04T12:40:02.705Z,44.39
2023-04-04T12:41:02.706Z,43.67
2023-04-04T12:42:02.676Z,42.56
2023-04-04T12:43:02.673Z,44.31
2023-04-04T12:44:02.693Z,41.64
2023-04-04T12:45:02.639Z,42.38
2023-04-04T12:46:02.607Z,44.64
2023-04-04T12:47:02.624Z,45.09
2023-04-04T12:48:02.633Z,43.67
2023-04-04T12:49:02.583Z,45.02
2023-04-04T12:50:02.579Z,40.76
2023-04-04T12:51:02.578Z,38.95
2023-04-04T12:52:02.555Z,38.09
2023-04-04T12:53:23.950Z,36.82
2023-04-04T12:54:03.527Z,36.39
2023-04-04T12:55:08.213Z,35.70
2023-04-04T12:56:03.479Z,32.81
2023-04-04T12:57:02.463Z,31.80
2023-04-04T12:58:02.491Z,35.31
2023-04-04T12:59:02.488Z,31.73
2023-04-04T13:00:02.446Z,30.60
2023-04-04T13:01:02.616Z,29.13
2023-04-04T13:02:02.416Z,32.28
2023-04-04T13:03:02.432Z,32.23
2023-04-04T13:04:02.439Z,32.29
2023-04-04T13:05:02.371Z,31.63
2023-04-04T13:06:02.392Z,31.20
2023-04-04T13:07:02.333Z,28.96
2023-04-04T13:08:02.350Z,28.85
2023-04-04T13:09:02.323Z,29.22
2023-04-04T13:10:02.317Z,28.63
2023-04-04T13:11:02.313Z,28.62
2023-04-04T13:12:02.304Z,26.41
2023-04-04T13:13:02.325Z,27.40
2023-04-04T13:14:02.270Z,26.48
2023-04-04T13:15:02.321Z,25.18
2023-04-04T13:16:02.235Z,26.87
2023-04-04T13:17:02.252Z,28.28
2023-04-04T13:18:02.232Z,28.64
2023-04-04T13:19:02.200Z,27.91
2023-04-04T13:20:02.183Z,28.60
2023-04-04T13:21:02.161Z,27.27